Time;durP1;ratioP1;P1;durP2;ratioP2;P2;SDS_P1;SDS_P2;PMS_P1;PMS_P2;Temp;Humidity;BMP_temperature;BMP_pressure;BME280_temperature;BME280_humidity;BME280_pressure;Samples;Min_cycle;Max_cycle;Signal;HPM_P1;HPM_P2
2023/09/06 00:01:37;;;;;;;5.50;5.00;;;20.70;73.00;;;;;;4892289;29;20454;-83
2023/09/06 00:04:05;;;;;;;6.03;5.53;;;20.70;73.20;;;;;;4891153;29;20470;-83
2023/09/06 00:06:34;;;;;;;6.03;5.43;;;20.60;73.30;;;;;;4896971;29;20470;-83
2023/09/06 00:09:03;;;;;;;6.10;5.60;;;20.60;73.60;;;;;;4889622;29;20485;-84
2023/09/06 00:11:33;;;;;;;6.23;5.63;;;20.50;73.60;;;;;;4891138;29;20466;-83
2023/09/06 00:14:03;;;;;;;5.63;5.23;;;20.70;73.00;;;;;;4891015;29;20474;-83
2023/09/06 00:16:31;;;;;;;5.83;5.33;;;20.80;72.70;;;;;;4892164;29;20828;-83
2023/09/06 00:19:00;;;;;;;5.93;5.40;;;20.90;72.20;;;;;;4896448;29;20465;-83
2023/09/06 00:21:29;;;;;;;6.30;5.50;;;20.80;72.10;;;;;;4884528;29;20470;-83
2023/09/06 00:23:58;;;;;;;6.10;5.60;;;20.60;72.80;;;;;;4890806;29;20518;-84
2023/09/06 00:26:26;;;;;;;6.40;5.90;;;20.40;73.60;;;;;;4890576;29;20482;-83
2023/09/06 00:28:57;;;;;;;6.47;5.87;;;20.20;74.20;;;;;;4896240;29;20494;-83
2023/09/06 00:31:26;;;;;;;6.17;5.57;;;20.10;74.80;;;;;;4895397;29;20480;-83
2023/09/06 00:33:54;;;;;;;6.17;5.57;;;20.00;74.80;;;;;;4888158;29;21036;-83
2023/09/06 00:36:22;;;;;;;5.33;4.83;;;20.10;74.60;;;;;;4893500;29;20504;-83
2023/09/06 00:38:51;;;;;;;6.13;5.60;;;20.20;74.30;;;;;;4891666;29;20477;-83
2023/09/06 00:41:20;;;;;;;6.57;5.97;;;20.20;74.10;;;;;;4890730;29;20521;-83
2023/09/06 00:43:48;;;;;;;6.10;5.50;;;20.10;74.40;;;;;;4889426;29;21483;-84
2023/09/06 00:46:18;;;;;;;5.97;5.47;;;20.10;74.20;;;;;;4887253;29;20519;-83
2023/09/06 00:48:50;;;;;;;6.63;6.13;;;20.10;74.20;;;;;;4894872;29;20484;-83
2023/09/06 00:51:20;;;;;;;6.33;5.10;;;20.00;74.10;;;;;;4887349;29;20848;-83
2023/09/06 00:53:48;;;;;;;6.77;6.10;;;19.90;74.50;;;;;;4891014;29;20473;-83
2023/09/06 00:56:18;;;;;;;5.93;5.43;;;19.80;74.80;;;;;;4890314;29;20491;-83
2023/09/06 00:58:46;;;;;;;6.13;5.53;;;19.90;74.70;;;;;;4890961;29;21081;-83
2023/09/06 01:01:16;;;;;;;6.43;5.87;;;19.90;74.40;;;;;;4891218;29;20472;-83
2023/09/06 01:03:46;;;;;;;7.40;5.40;;;19.80;74.30;;;;;;4890259;29;20464;-83
2023/09/06 01:06:20;;;;;;;6.70;6.10;;;19.80;74.70;;;;;;4889699;29;20473;-83
2023/09/06 01:08:53;;;;;;;6.10;5.50;;;19.90;74.70;;;;;;4884174;29;21095;-83
2023/09/06 01:11:23;;;;;;;5.77;5.27;;;19.90;74.30;;;;;;4892068;29;20465;-83
2023/09/06 01:13:53;;;;;;;6.30;5.90;;;19.90;74.10;;;;;;4886112;29;20972;-83
2023/09/06 01:16:26;;;;;;;5.90;5.27;;;20.00;73.90;;;;;;4891893;29;20458;-84
2023/09/06 01:18:57;;;;;;;5.90;5.40;;;20.00;73.30;;;;;;4893868;29;20967;-83
2023/09/06 01:21:28;;;;;;;6.03;5.53;;;19.80;73.80;;;;;;4887677;29;20483;-83
2023/09/06 01:24:00;;;;;;;6.00;5.50;;;19.70;74.30;;;;;;4897090;29;20464;-83
2023/09/06 01:26:28;;;;;;;5.40;4.90;;;19.70;74.20;;;;;;4886617;29;20555;-83
2023/09/06 01:28:57;;;;;;;5.77;5.27;;;19.70;74.00;;;;;;4884014;29;20946;-83
2023/09/06 01:31:26;;;;;;;7.57;6.10;;;19.80;73.90;;;;;;4894238;29;20477;-83
2023/09/06 01:33:54;;;;;;;6.70;6.10;;;19.70;73.90;;;;;;4895228;29;20499;-83
2023/09/06 01:36:23;;;;;;;7.23;5.40;;;19.60;74.20;;;;;;4886752;29;20469;-83
2023/09/06 01:38:52;;;;;;;6.57;5.87;;;19.60;74.20;;;;;;4897895;29;20460;-84
2023/09/06 01:41:21;;;;;;;6.23;5.63;;;19.50;74.30;;;;;;4885609;29;20476;-83
2023/09/06 01:43:54;;;;;;;8.77;6.00;;;19.40;74.50;;;;;;4878120;29;20533;-83
2023/09/06 01:46:23;;;;;;;6.33;5.73;;;19.40;74.50;;;;;;4897969;29;20492;-83
2023/09/06 01:48:52;;;;;;;6.20;5.70;;;19.40;74.50;;;;;;4909435;29;20471;-83
2023/09/06 01:51:23;;;;;;;5.93;5.43;;;19.40;74.40;;;;;;4891704;29;20575;-83
2023/09/06 01:53:51;;;;;;;7.70;6.20;;;19.50;74.10;;;;;;4886505;29;20471;-83
2023/09/06 01:56:21;;;;;;;6.97;5.77;;;19.60;73.70;;;;;;4885797;29;20472;-83
2023/09/06 01:58:49;;;;;;;6.90;6.30;;;19.50;74.00;;;;;;4896152;29;20574;-83
2023/09/06 02:01:19;;;;;;;8.20;6.30;;;19.50;74.10;;;;;;4893566;29;20809;-83
2023/09/06 02:03:48;;;;;;;7.97;6.27;;;19.50;73.90;;;;;;4891275;29;20472;-83
2023/09/06 02:06:17;;;;;;;6.73;5.97;;;19.40;74.20;;;;;;4882808;29;20474;-83
2023/09/06 02:08:46;;;;;;;7.93;7.20;;;19.30;74.30;;;;;;4899169;29;20825;-83
2023/09/06 02:11:15;;;;;;;7.03;5.57;;;19.20;74.40;;;;;;4903892;29;20485;-81
2023/09/06 02:13:45;;;;;;;8.10;6.53;;;19.10;74.90;;;;;;4896058;29;20482;-83
2023/09/06 02:16:13;;;;;;;7.10;6.07;;;18.90;75.40;;;;;;4889398;29;20532;-83
2023/09/06 02:18:42;;;;;;;7.57;6.97;;;19.00;74.90;;;;;;4902938;29;20466;-83
2023/09/06 02:21:10;;;;;;;6.67;6.07;;;18.80;75.30;;;;;;4889101;29;20485;-84
2023/09/06 02:23:38;;;;;;;6.50;6.00;;;18.70;75.70;;;;;;4894360;29;20550;-83
2023/09/06 02:26:06;;;;;;;6.57;5.93;;;18.50;76.40;;;;;;4889546;29;20466;-83
2023/09/06 02:28:35;;;;;;;8.93;5.60;;;18.50;76.30;;;;;;4892087;29;20459;-83
2023/09/06 02:31:05;;;;;;;6.73;6.10;;;18.50;76.70;;;;;;4896159;29;21289;-83
2023/09/06 02:33:33;;;;;;;6.60;6.00;;;18.40;76.40;;;;;;4888933;29;20995;-83
2023/09/06 02:36:01;;;;;;;6.40;5.90;;;18.40;76.60;;;;;;4896593;29;21240;-83
2023/09/06 02:38:29;;;;;;;6.60;5.47;;;18.40;76.80;;;;;;4894484;29;20470;-83
2023/09/06 02:40:58;;;;;;;5.97;5.40;;;18.40;76.50;;;;;;4897871;29;20540;-83
2023/09/06 02:43:26;;;;;;;6.43;5.83;;;18.40;76.30;;;;;;4893440;29;20982;-83
2023/09/06 02:45:54;;;;;;;6.20;5.57;;;18.50;76.20;;;;;;4891981;29;20473;-83
2023/09/06 02:48:29;;;;;;;7.67;6.23;;;18.50;76.20;;;;;;4887723;29;20518;-83
2023/09/06 02:50:59;;;;;;;8.00;6.17;;;18.50;76.30;;;;;;4909034;29;20906;-83
2023/09/06 02:53:31;;;;;;;6.40;5.73;;;18.40;76.50;;;;;;4892333;29;20466;-83
2023/09/06 02:56:01;;;;;;;7.70;6.30;;;18.60;76.30;;;;;;4890365;29;20860;-83
2023/09/06 02:58:31;;;;;;;6.63;5.97;;;18.70;75.80;;;;;;4898387;29;20895;-83
2023/09/06 03:01:05;;;;;;;6.37;5.77;;;18.80;75.40;;;;;;4899605;29;20549;-84
2023/09/06 03:03:36;;;;;;;6.93;6.23;;;18.70;75.50;;;;;;4906833;29;20620;-82
2023/09/06 03:06:04;;;;;;;6.60;5.90;;;18.80;75.10;;;;;;4894722;29;20462;-83
2023/09/06 03:08:36;;;;;;;6.60;6.00;;;18.90;74.90;;;;;;4906004;29;20554;-83
2023/09/06 03:11:05;;;;;;;6.40;5.80;;;19.00;74.50;;;;;;4903429;29;20823;-83
2023/09/06 03:13:34;;;;;;;6.70;6.10;;;19.00;74.40;;;;;;4904277;29;20470;-83
2023/09/06 03:16:04;;;;;;;6.83;5.80;;;18.80;75.20;;;;;;4884748;29;21232;-83
2023/09/06 03:18:33;;;;;;;5.97;5.37;;;18.60;75.70;;;;;;4892292;29;20469;-84
2023/09/06 03:21:04;;;;;;;6.30;5.80;;;18.40;76.20;;;;;;4894682;29;20526;-83
2023/09/06 03:23:33;;;;;;;6.93;6.23;;;18.40;76.10;;;;;;4898120;29;20560;-83
2023/09/06 03:26:05;;;;;;;6.93;6.33;;;18.60;75.60;;;;;;4901822;29;20831;-83
2023/09/06 03:28:40;;;;;;;8.43;7.53;;;18.60;75.70;;;;;;4895239;29;20478;-83
2023/09/06 03:31:13;;;;;;;6.43;5.83;;;18.50;75.80;;;;;;4888556;29;20484;-83
2023/09/06 03:33:42;;;;;;;6.10;5.53;;;18.60;75.30;;;;;;4896456;29;20541;-83
2023/09/06 03:36:14;;;;;;;7.47;6.77;;;18.60;75.40;;;;;;4891820;29;20515;-83
2023/09/06 03:38:43;;;;;;;6.57;5.97;;;18.60;75.20;;;;;;4897821;29;20534;-83
2023/09/06 03:41:11;;;;;;;7.03;6.27;;;18.60;75.00;;;;;;4893204;29;20784;-83
2023/09/06 03:43:39;;;;;;;6.20;5.70;;;18.50;75.50;;;;;;4890141;29;20460;-83
2023/09/06 03:46:12;;;;;;;6.23;5.63;;;18.50;75.40;;;;;;4894404;29;21351;-83
2023/09/06 03:48:43;;;;;;;5.77;5.30;;;18.50;75.10;;;;;;4892469;29;20554;-83
2023/09/06 03:51:14;;;;;;;7.50;5.97;;;18.60;75.30;;;;;;4885580;29;20489;-83
2023/09/06 03:53:43;;;;;;;5.80;5.27;;;18.60;74.80;;;;;;4900804;29;20498;-83
2023/09/06 03:56:12;;;;;;;6.60;5.90;;;18.60;74.70;;;;;;4905892;29;20482;-83
2023/09/06 03:58:44;;;;;;;6.53;5.93;;;18.60;74.70;;;;;;4912059;29;20496;-83
2023/09/06 04:01:15;;;;;;;6.53;5.93;;;18.50;74.80;;;;;;4892212;29;20475;-83
2023/09/06 04:03:46;;;;;;;6.00;5.50;;;18.40;74.90;;;;;;4897564;29;20529;-83
2023/09/06 04:06:16;;;;;;;7.90;5.47;;;18.50;74.60;;;;;;4880733;29;20575;-83
2023/09/06 04:08:46;;;;;;;6.60;5.40;;;18.50;74.50;;;;;;4887882;29;20846;-83
2023/09/06 04:11:14;;;;;;;6.10;5.50;;;18.60;73.90;;;;;;4892346;29;20490;-83
2023/09/06 04:13:44;;;;;;;6.40;5.80;;;18.60;74.20;;;;;;4885163;29;20465;-83
2023/09/06 04:16:15;;;;;;;7.60;5.23;;;18.50;74.30;;;;;;4891943;29;20830;-83
2023/09/06 04:18:44;;;;;;;6.10;5.50;;;18.70;73.50;;;;;;4899955;29;20523;-83
2023/09/06 04:21:13;;;;;;;6.37;5.77;;;18.70;73.60;;;;;;4888723;29;20463;-83
2023/09/06 04:23:45;;;;;;;6.53;5.80;;;18.60;73.40;;;;;;4890819;29;20528;-83
2023/09/06 04:26:17;;;;;;;6.07;5.43;;;18.70;73.20;;;;;;4897424;29;20478;-83
2023/09/06 04:28:45;;;;;;;5.80;5.20;;;18.70;72.90;;;;;;4890672;29;20963;-83
2023/09/06 04:31:17;;;;;;;4.83;4.43;;;18.80;73.00;;;;;;4891693;29;20482;-83
2023/09/06 04:33:48;;;;;;;5.30;4.80;;;18.90;72.50;;;;;;4886030;29;20542;-83
2023/09/06 04:36:21;;;;;;;5.60;5.00;;;18.80;72.60;;;;;;4891784;29;20863;-83
2023/09/06 04:38:56;;;;;;;6.10;5.60;;;18.80;72.50;;;;;;4897950;29;21057;-83
2023/09/06 04:41:25;;;;;;;6.47;5.97;;;18.80;72.50;;;;;;4883958;29;20474;-83
2023/09/06 04:43:58;;;;;;;6.77;6.20;;;18.70;72.70;;;;;;4888059;29;20553;-83
2023/09/06 04:46:28;;;;;;;6.47;5.30;;;18.60;73.30;;;;;;4901368;29;20554;-83
2023/09/06 04:52:57;;;;;;;6.23;5.70;;;18.20;74.50;;;;;;4888840;29;20545;-84
2023/09/06 04:55:27;;;;;;;7.10;6.40;;;17.80;75.90;;;;;;4899163;29;20906;-83
2023/09/06 04:57:55;;;;;;;6.80;6.20;;;17.50;76.70;;;;;;4887730;29;21009;-83
2023/09/06 05:00:24;;;;;;;6.70;5.93;;;17.40;77.30;;;;;;4886159;29;20478;-83
2023/09/06 05:02:52;;;;;;;6.77;6.10;;;17.40;77.50;;;;;;4899264;29;20472;-83
2023/09/06 05:05:22;;;;;;;6.10;5.57;;;17.40;77.60;;;;;;4886153;29;20467;-83
2023/09/06 05:07:50;;;;;;;6.20;5.30;;;17.70;78.90;;;;;;4889831;29;20647;-83
2023/09/06 05:10:19;;;;;;;5.77;5.27;;;18.30;78.60;;;;;;4890307;29;20477;-82
2023/09/06 05:12:49;;;;;;;7.30;4.70;;;18.90;76.60;;;;;;4889193;29;20494;-82
2023/09/06 05:15:17;;;;;;;5.73;5.20;;;19.50;76.10;;;;;;4888863;29;20498;-83
2023/09/06 05:17:46;;;;;;;4.80;4.40;;;20.00;74.30;;;;;;4887190;29;20478;-83
2023/09/06 05:20:26;;;;;;;4.60;4.20;;;20.40;73.90;;;;;;4890618;29;20641;-83
2023/09/06 05:22:57;;;;;;;5.07;4.67;;;20.70;72.70;;;;;;4898839;29;20498;-83
2023/09/06 05:25:26;;;;;;;10.97;5.50;;;21.00;72.20;;;;;;4887271;29;20466;-83
2023/09/06 05:27:58;;;;;;;13.97;6.80;;;21.20;72.30;;;;;;4887408;29;20469;-83
2023/09/06 05:30:28;;;;;;;25.20;7.37;;;21.30;74.30;;;;;;4885726;29;20886;-84
2023/09/06 05:32:57;;;;;;;16.13;6.03;;;21.40;74.20;;;;;;4900823;29;20498;-84
2023/09/06 05:35:27;;;;;;;7.40;5.40;;;21.50;74.40;;;;;;4887143;29;20554;-84
2023/09/06 05:37:56;;;;;;;6.73;5.97;;;21.60;74.30;;;;;;4880005;29;20520;-84
2023/09/06 05:40:26;;;;;;;11.80;5.87;;;21.70;73.70;;;;;;4888215;29;20563;-83
2023/09/06 05:42:57;;;;;;;7.10;5.20;;;21.90;73.40;;;;;;4887161;29;20468;-84
2023/09/06 05:45:26;;;;;;;6.17;4.63;;;22.10;73.20;;;;;;4879181;29;20468;-83
2023/09/06 05:47:55;;;;;;;8.13;5.00;;;22.20;73.30;;;;;;4881509;29;20556;-84
2023/09/06 05:50:23;;;;;;;5.23;4.73;;;22.30;72.30;;;;;;4892254;29;20520;-84
2023/09/06 05:52:52;;;;;;;5.37;4.87;;;22.50;72.50;;;;;;4885297;29;21057;-83
2023/09/06 05:55:20;;;;;;;8.23;5.83;;;22.60;72.40;;;;;;4890186;29;20473;-84
2023/09/06 05:57:51;;;;;;;5.23;4.57;;;22.70;69.20;;;;;;4889040;29;20527;-84
2023/09/06 06:00:22;;;;;;;7.17;5.03;;;22.80;71.70;;;;;;4896071;29;20525;-83
2023/09/06 06:02:55;;;;;;;6.50;4.90;;;22.80;69.90;;;;;;4908878;29;20892;-83
2023/09/06 06:05:24;;;;;;;6.13;5.13;;;22.80;71.20;;;;;;4895942;29;20466;-83
2023/09/06 06:07:52;;;;;;;4.57;4.17;;;22.80;72.00;;;;;;4892889;29;21370;-84
2023/09/06 06:10:20;;;;;;;4.90;4.37;;;22.90;71.60;;;;;;4895583;29;20907;-83
2023/09/06 06:12:48;;;;;;;5.20;4.27;;;23.00;72.60;;;;;;4900125;29;20577;-84
2023/09/06 06:15:16;;;;;;;4.67;4.23;;;23.10;70.70;;;;;;4894719;29;20551;-84
2023/09/06 06:17:46;;;;;;;5.37;4.87;;;23.30;71.90;;;;;;4895717;29;21116;-83
2023/09/06 06:20:17;;;;;;;6.83;5.00;;;23.40;71.50;;;;;;4895337;29;20465;-83
2023/09/06 06:22:54;;;;;;;4.47;4.03;;;23.50;70.00;;;;;;4895037;29;20473;-82
2023/09/06 06:25:22;;;;;;;5.60;5.03;;;23.60;69.90;;;;;;4894527;29;20800;-82
2023/09/06 06:27:51;;;;;;;4.63;4.20;;;23.70;68.50;;;;;;4896463;29;20495;-84
2023/09/06 06:30:20;;;;;;;8.97;4.23;;;23.80;69.70;;;;;;4890603;29;20489;-85
2023/09/06 06:32:50;;;;;;;4.50;4.10;;;23.90;70.20;;;;;;4893496;29;20499;-85
2023/09/06 06:35:18;;;;;;;7.33;4.70;;;23.90;69.00;;;;;;4894771;29;20581;-85
2023/09/06 06:37:49;;;;;;;5.90;4.77;;;24.00;69.80;;;;;;4891360;29;20472;-85
2023/09/06 06:40:18;;;;;;;5.60;4.90;;;24.00;70.00;;;;;;4896021;29;20481;-85
2023/09/06 06:42:46;;;;;;;5.63;5.13;;;24.10;69.00;;;;;;4893495;29;20480;-84
2023/09/06 06:45:15;;;;;;;4.80;4.40;;;24.20;69.10;;;;;;4895393;29;20879;-85
2023/09/06 06:47:45;;;;;;;4.90;4.50;;;24.30;68.90;;;;;;4898309;29;20500;-85
2023/09/06 06:50:15;;;;;;;6.30;5.80;;;24.30;69.00;;;;;;4896657;29;20469;-83
2023/09/06 06:52:44;;;;;;;5.17;4.77;;;24.40;68.10;;;;;;4897218;29;20480;-83
2023/09/06 06:55:13;;;;;;;5.60;4.57;;;24.40;67.10;;;;;;4898199;29;20498;-82
2023/09/06 06:57:41;;;;;;;3.90;3.60;;;24.40;68.60;;;;;;4891617;29;20887;-83
2023/09/06 07:00:11;;;;;;;4.90;4.47;;;24.40;68.30;;;;;;4896540;29;20465;-83
2023/09/06 07:02:39;;;;;;;4.63;4.23;;;24.50;68.00;;;;;;4896796;29;21027;-82
2023/09/06 07:05:08;;;;;;;4.67;4.20;;;24.50;68.10;;;;;;4896271;29;20462;-82
2023/09/06 07:07:38;;;;;;;5.53;5.03;;;24.60;68.30;;;;;;4899603;29;20477;-83
2023/09/06 07:10:08;;;;;;;5.30;4.20;;;24.60;67.80;;;;;;4900929;29;20971;-82
2023/09/06 07:12:37;;;;;;;4.60;3.90;;;24.70;67.00;;;;;;4893182;29;20517;-82
2023/09/06 07:15:06;;;;;;;6.90;4.23;;;24.70;67.70;;;;;;4895899;29;20503;-82
2023/09/06 07:17:34;;;;;;;5.90;5.03;;;24.70;67.40;;;;;;4893852;29;20464;-84
2023/09/06 07:20:07;;;;;;;4.80;4.40;;;24.70;67.70;;;;;;4893195;29;20491;-83
2023/09/06 07:22:35;;;;;;;5.50;5.00;;;24.80;67.60;;;;;;4894858;29;20468;-84
2023/09/06 07:25:08;;;;;;;5.17;4.70;;;24.80;67.60;;;;;;4895562;29;20524;-85
2023/09/06 07:27:36;;;;;;;5.00;4.57;;;24.90;67.00;;;;;;4895965;29;20934;-84
2023/09/06 07:30:06;;;;;;;4.43;4.13;;;24.90;67.40;;;;;;4896485;29;20472;-84
2023/09/06 07:32:34;;;;;;;5.30;4.90;;;24.90;67.10;;;;;;4901330;29;20561;-82
2023/09/06 07:35:03;;;;;;;4.90;4.40;;;25.00;66.80;;;;;;4897625;29;20458;-83
2023/09/06 07:37:32;;;;;;;4.70;4.30;;;25.00;66.30;;;;;;4897768;29;20481;-83
2023/09/06 07:40:00;;;;;;;7.30;6.80;;;25.00;67.10;;;;;;4895659;29;20472;-84
2023/09/06 07:42:30;;;;;;;5.03;4.73;;;25.00;67.20;;;;;;4892750;29;20902;-83
2023/09/06 07:44:58;;;;;;;6.80;4.60;;;25.00;67.20;;;;;;4898225;29;20516;-84
2023/09/06 07:47:27;;;;;;;5.00;4.60;;;25.10;66.00;;;;;;4898279;29;20539;-83
2023/09/06 07:49:55;;;;;;;5.30;4.80;;;25.10;67.10;;;;;;4895772;29;20596;-83
2023/09/06 07:52:24;;;;;;;5.70;5.10;;;25.00;67.00;;;;;;4894089;29;20513;-83
2023/09/06 07:54:52;;;;;;;4.67;4.27;;;25.10;67.20;;;;;;4899959;29;20513;-84
2023/09/06 07:57:20;;;;;;;4.70;4.30;;;25.10;66.60;;;;;;4898256;29;20516;-83
2023/09/06 07:59:50;;;;;;;5.53;5.20;;;25.10;67.20;;;;;;4896555;29;20460;-82
2023/09/06 08:02:18;;;;;;;4.67;4.30;;;25.10;65.10;;;;;;4898562;29;20475;-82
2023/09/06 08:04:46;;;;;;;5.23;4.83;;;25.10;65.50;;;;;;4892957;29;20544;-83
2023/09/06 08:07:15;;;;;;;4.93;4.30;;;25.10;66.00;;;;;;4895683;29;20589;-83
2023/09/06 08:09:43;;;;;;;5.07;4.57;;;25.00;66.20;;;;;;4897803;29;20491;-84
2023/09/06 08:12:12;;;;;;;4.00;3.70;;;25.10;66.40;;;;;;4893857;29;20520;-83
2023/09/06 08:14:41;;;;;;;5.10;4.70;;;25.10;66.20;;;;;;4900600;29;20546;-84
2023/09/06 08:17:12;;;;;;;4.60;4.30;;;25.10;67.10;;;;;;4889764;29;21090;-83
2023/09/06 08:19:40;;;;;;;5.23;4.80;;;25.20;65.80;;;;;;4894142;29;20922;-83
2023/09/06 08:22:09;;;;;;;5.30;4.80;;;25.20;66.70;;;;;;4894766;29;20466;-84
2023/09/06 08:24:37;;;;;;;5.60;5.10;;;25.20;66.60;;;;;;4894503;29;20508;-82
2023/09/06 08:27:09;;;;;;;4.90;4.50;;;25.20;66.00;;;;;;4896599;29;20491;-83
2023/09/06 08:29:37;;;;;;;4.30;3.97;;;25.30;66.50;;;;;;4895265;29;20461;-83
2023/09/06 08:32:08;;;;;;;5.30;4.90;;;25.30;66.90;;;;;;4895082;29;20495;-83
2023/09/06 08:34:38;;;;;;;4.47;4.13;;;25.30;66.20;;;;;;4898008;29;20478;-84
2023/09/06 08:37:07;;;;;;;5.47;4.97;;;25.30;66.80;;;;;;4899670;29;20455;-83
2023/09/06 08:39:35;;;;;;;5.63;5.13;;;25.40;66.30;;;;;;4895339;29;20471;-83
2023/09/06 08:42:06;;;;;;;5.40;4.90;;;25.40;66.20;;;;;;4894176;29;20464;-83
2023/09/06 08:44:35;;;;;;;6.10;5.60;;;25.40;66.10;;;;;;4892346;29;20534;-84
2023/09/06 08:47:08;;;;;;;4.80;4.40;;;25.40;66.30;;;;;;4889461;29;20480;-85
2023/09/06 08:49:38;;;;;;;4.77;4.37;;;25.40;66.50;;;;;;4894918;29;20952;-84
2023/09/06 08:52:09;;;;;;;6.10;5.13;;;25.40;66.30;;;;;;4891986;29;20503;-84
2023/09/06 08:54:37;;;;;;;6.67;6.10;;;25.40;66.20;;;;;;4887939;29;20488;-85
2023/09/06 08:57:06;;;;;;;4.90;4.50;;;25.40;65.10;;;;;;4892969;29;20462;-85
2023/09/06 08:59:34;;;;;;;5.00;4.60;;;25.40;66.30;;;;;;4890989;29;20477;-84
2023/09/06 09:02:04;;;;;;;6.87;4.67;;;25.40;66.50;;;;;;4895139;29;20501;-84
2023/09/06 09:04:32;;;;;;;5.37;4.93;;;25.40;66.40;;;;;;4894598;29;20465;-84
2023/09/06 09:07:03;;;;;;;4.90;4.50;;;25.50;66.30;;;;;;4896491;29;20469;-84
2023/09/06 09:09:31;;;;;;;5.30;4.83;;;25.50;66.30;;;;;;4890563;29;20485;-84
2023/09/06 09:12:00;;;;;;;6.10;5.10;;;25.50;66.20;;;;;;4897952;29;20488;-84
2023/09/06 10:22:38;;;;;;;6.27;5.77;;;24.70;70.40;;;;;;5019899;27;20613;-78
2023/09/06 10:25:16;;;;;;;5.13;4.73;;;25.30;68.40;;;;;;5006530;28;20472;-77
2023/09/06 10:27:49;;;;;;;7.77;7.00;;;25.50;67.90;;;;;;5018397;28;20487;-77
2023/09/06 10:30:28;;;;;;;6.00;5.60;;;25.50;68.00;;;;;;5014898;28;20484;-77
2023/09/06 10:32:57;;;;;;;8.63;7.90;;;25.60;67.50;;;;;;5006611;28;20460;-78
2023/09/06 10:35:29;;;;;;;5.97;5.47;;;25.60;67.50;;;;;;5050461;28;20465;-77
2023/09/06 10:38:11;;;;;;;5.40;5.00;;;25.70;67.60;;;;;;5030976;28;20910;-77
2023/09/06 10:41:10;;;;;;;7.47;6.87;;;25.70;67.20;;;;;;5013068;28;20969;-76
2023/09/06 10:44:03;;;;;;;8.90;8.20;;;25.80;67.40;;;;;;5011356;28;20898;-76
2023/09/06 10:46:32;;;;;;;8.53;7.80;;;25.80;67.70;;;;;;5033442;28;20481;-78
2023/09/06 10:49:19;;;;;;;7.37;6.77;;;25.80;67.60;;;;;;5029602;28;20556;-76
2023/09/06 10:52:00;;;;;;;7.40;6.80;;;25.80;67.50;;;;;;5029011;28;20478;-77
2023/09/06 10:54:35;;;;;;;8.20;7.40;;;25.80;68.00;;;;;;5025103;28;20508;-77
2023/09/06 10:57:05;;;;;;;7.50;6.90;;;25.90;67.50;;;;;;5005361;28;20543;-77
2023/09/06 10:59:37;;;;;;;7.13;6.40;;;25.90;67.20;;;;;;5017460;28;20464;-77
2023/09/06 11:02:25;;;;;;;8.30;7.60;;;26.00;67.20;;;;;;5009094;28;20462;-78
2023/09/06 11:05:06;;;;;;;6.60;6.10;;;26.10;67.30;;;;;;5028682;28;20473;-77
2023/09/06 11:07:39;;;;;;;7.33;6.73;;;26.30;66.80;;;;;;5028193;28;20459;-77
2023/09/06 11:10:22;;;;;;;7.23;6.60;;;26.40;66.70;;;;;;5034071;28;20460;-78
2023/09/06 11:12:53;;;;;;;7.50;6.90;;;26.60;66.20;;;;;;5032502;28;20466;-77
2023/09/06 11:15:22;;;;;;;6.60;6.10;;;26.80;66.10;;;;;;5050273;28;20470;-65
2023/09/06 11:17:52;;;;;;;6.50;6.00;;;27.10;65.30;;;;;;5012762;28;20470;-68
2023/09/06 11:20:22;;;;;;;7.07;6.50;;;27.30;64.60;;;;;;4994980;28;20466;-67
2023/09/06 11:22:51;;;;;;;6.53;5.83;;;27.50;64.00;;;;;;5018811;28;20466;-65
2023/09/06 11:25:22;;;;;;;6.13;5.63;;;27.70;63.50;;;;;;4995103;28;20467;-66
2023/09/06 11:27:51;;;;;;;7.07;6.37;;;27.90;63.10;;;;;;5017317;28;20456;-65
2023/09/06 11:30:21;;;;;;;6.93;6.43;;;28.00;62.70;;;;;;5014038;28;20823;-65
2023/09/06 11:32:50;;;;;;;6.87;5.90;;;28.10;62.60;;;;;;4992204;28;20459;-82
2023/09/06 11:35:22;;;;;;;6.10;5.60;;;28.20;62.40;;;;;;4995714;28;20937;-81
2023/09/06 11:37:52;;;;;;;6.77;6.17;;;28.20;62.40;;;;;;5018530;28;20468;-82
2023/09/06 11:40:27;;;;;;;6.30;5.80;;;28.20;62.50;;;;;;4991900;28;21301;-80
2023/09/06 11:42:58;;;;;;;5.13;4.63;;;28.20;62.50;;;;;;5009979;28;20459;-81
2023/09/06 11:45:28;;;;;;;5.77;5.27;;;28.20;62.60;;;;;;5023400;28;20478;-81
2023/09/06 11:47:59;;;;;;;5.90;5.40;;;28.30;62.50;;;;;;5010955;28;20469;-81
2023/09/06 11:50:29;;;;;;;7.70;7.00;;;28.30;62.40;;;;;;5004425;28;20627;-79
2023/09/06 11:53:04;;;;;;;6.20;5.70;;;28.40;62.20;;;;;;5038359;28;20555;-79
2023/09/06 11:55:37;;;;;;;6.43;5.93;;;28.40;62.20;;;;;;4994205;28;20561;-79
2023/09/06 11:58:16;;;;;;;7.70;6.03;;;28.40;62.10;;;;;;4989273;28;20446;-80
2023/09/06 12:00:50;;;;;;;5.87;5.40;;;28.50;62.20;;;;;;4991271;28;20488;-81
2023/09/06 12:03:21;;;;;;;6.63;6.13;;;28.40;62.20;;;;;;4996328;28;20943;-80
2023/09/06 12:05:53;;;;;;;6.93;5.50;;;28.50;62.20;;;;;;5008264;28;20488;-80
2023/09/06 12:08:23;;;;;;;5.63;5.03;;;28.50;62.20;;;;;;4998320;28;20459;-81
2023/09/06 12:11:05;;;;;;;5.37;4.97;;;28.50;62.10;;;;;;5016354;28;20452;-81
2023/09/06 12:13:37;;;;;;;6.13;5.63;;;28.60;61.90;;;;;;5023842;28;20468;-81
2023/09/06 12:16:08;;;;;;;7.43;5.97;;;28.60;61.80;;;;;;5015371;28;20465;-83
2023/09/06 12:18:38;;;;;;;5.90;5.40;;;28.70;61.60;;;;;;5028269;28;20457;-81
2023/09/06 12:21:07;;;;;;;5.97;5.47;;;28.70;61.50;;;;;;5047506;28;20495;-79
2023/09/06 12:23:38;;;;;;;5.60;5.30;;;28.80;61.00;;;;;;5017290;28;20461;-78
2023/09/06 12:26:08;;;;;;;5.80;5.30;;;28.90;60.60;;;;;;5012569;28;20461;-80
2023/09/06 12:28:37;;;;;;;6.10;5.60;;;28.90;60.50;;;;;;5003620;28;20457;-83
2023/09/06 12:31:07;;;;;;;6.27;5.67;;;29.00;60.20;;;;;;5022536;28;20485;-81
2023/09/06 12:33:39;;;;;;;6.27;5.67;;;29.10;60.20;;;;;;5040413;28;20543;-81
2023/09/06 12:36:10;;;;;;;6.77;6.27;;;29.00;60.40;;;;;;5009539;28;20470;-82
2023/09/06 12:38:39;;;;;;;7.13;6.63;;;29.00;60.40;;;;;;4991517;28;20469;-80
2023/09/06 12:41:09;;;;;;;6.40;5.80;;;28.90;60.80;;;;;;5018117;28;20497;-80
2023/09/06 12:43:37;;;;;;;6.63;6.07;;;28.90;61.00;;;;;;5048078;28;20449;-79
2023/09/06 12:46:06;;;;;;;6.50;5.90;;;28.80;61.30;;;;;;5025854;28;20485;-79
2023/09/06 12:48:35;;;;;;;5.70;5.30;;;28.80;61.30;;;;;;5034098;28;20452;-80
2023/09/06 12:51:06;;;;;;;6.13;5.73;;;28.80;61.30;;;;;;5001581;28;20849;-79
2023/09/06 12:53:36;;;;;;;8.33;6.20;;;28.90;61.20;;;;;;4987841;28;20969;-79
2023/09/06 12:56:07;;;;;;;7.57;6.87;;;28.90;61.20;;;;;;5039201;28;20448;-79
2023/09/06 12:58:40;;;;;;;6.20;5.80;;;28.90;61.20;;;;;;5054582;28;20453;-79
2023/09/06 13:01:10;;;;;;;6.70;6.17;;;28.80;61.10;;;;;;5019303;28;20457;-80
2023/09/06 13:03:39;;;;;;;6.47;5.97;;;28.80;61.30;;;;;;5030182;28;20459;-79
2023/09/06 13:06:08;;;;;;;5.87;5.37;;;28.70;61.30;;;;;;5026051;28;20441;-80
2023/09/06 13:08:37;;;;;;;6.50;6.00;;;28.70;61.30;;;;;;5014584;28;20452;-80
2023/09/06 13:11:06;;;;;;;8.50;7.80;;;28.60;61.50;;;;;;5016989;28;20465;-81
2023/09/06 13:13:36;;;;;;;7.17;6.57;;;28.50;61.80;;;;;;5014127;28;20484;-81
2023/09/06 13:16:07;;;;;;;6.30;5.80;;;28.50;62.10;;;;;;5030705;28;20440;-84
2023/09/06 13:18:38;;;;;;;6.23;5.63;;;28.40;62.20;;;;;;5021890;28;20873;-81
2023/09/06 13:21:07;;;;;;;6.57;5.93;;;28.30;62.30;;;;;;5053803;28;20551;-81
2023/09/06 13:23:36;;;;;;;6.83;6.33;;;28.30;62.40;;;;;;4998748;28;20453;-83
2023/09/06 13:26:05;;;;;;;6.33;5.83;;;28.20;62.40;;;;;;4981525;28;20825;-83
2023/09/06 13:28:34;;;;;;;6.80;6.30;;;28.20;62.60;;;;;;5015518;28;20445;-81
2023/09/06 13:31:04;;;;;;;5.90;5.50;;;28.30;62.50;;;;;;5009119;28;20864;-81
2023/09/06 13:33:35;;;;;;;6.20;5.77;;;28.30;62.40;;;;;;5014517;28;20836;-82
2023/09/06 13:36:06;;;;;;;5.70;5.30;;;28.30;62.40;;;;;;5038479;28;20451;-80
2023/09/06 13:38:35;;;;;;;5.40;5.00;;;28.40;62.40;;;;;;5020167;28;20452;-81
2023/09/06 13:41:04;;;;;;;5.80;5.30;;;28.40;62.40;;;;;;5017195;28;20466;-88
2023/09/06 13:43:33;;;;;;;6.37;5.87;;;28.40;62.40;;;;;;5009261;28;20462;-91
2023/09/06 13:46:02;;;;;;;6.10;5.60;;;28.50;62.30;;;;;;4995069;28;20453;-82
2023/09/06 13:48:30;;;;;;;5.67;5.20;;;28.50;62.10;;;;;;5026045;28;20491;-83
2023/09/06 13:51:00;;;;;;;9.03;5.47;;;28.50;62.20;;;;;;5022999;28;20953;-82
2023/09/06 13:53:29;;;;;;;5.60;5.20;;;28.60;62.20;;;;;;5042014;28;20476;-83
2023/09/06 13:55:57;;;;;;;5.47;4.97;;;28.60;62.20;;;;;;5049453;28;20483;-82
2023/09/06 13:58:26;;;;;;;5.00;4.60;;;28.60;62.00;;;;;;5031267;28;20916;-82
2023/09/06 14:00:56;;;;;;;5.07;4.67;;;28.60;62.00;;;;;;5027346;28;20495;-83
2023/09/06 14:03:27;;;;;;;6.03;5.63;;;28.70;61.90;;;;;;5005997;28;20951;-84
2023/09/06 14:05:56;;;;;;;5.47;4.97;;;28.70;61.30;;;;;;5031977;28;20453;-81
2023/09/06 14:08:26;;;;;;;5.80;5.40;;;28.70;61.70;;;;;;5032404;28;20461;-86
2023/09/06 14:10:56;;;;;;;5.80;5.30;;;28.80;61.70;;;;;;5015428;28;20460;-80
2023/09/06 14:13:24;;;;;;;4.77;4.47;;;28.80;61.70;;;;;;5013856;28;20483;-87